Time;durP1;ratioP1;P1;durP2;ratioP2;P2;SDS_P1;SDS_P2;PMS_P1;PMS_P2;Temp;Humidity;BMP_temperature;BMP_pressure;BME280_temperature;BME280_humidity;BME280_pressure;Samples;Min_cycle;Max_cycle;Signal;HPM_P1;HPM_P2
2022/10/31 00:01:10;;;;;;;13.70;6.88;;;;;;;15.35;75.21;96065.94;5069162;28;20201;-80
2022/10/31 00:03:37;;;;;;;10.77;7.13;;;;;;;15.38;75.53;96059.59;5070275;28;20710;-81
2022/10/31 00:06:03;;;;;;;12.70;7.07;;;;;;;15.36;75.54;96058.97;5070251;28;20669;-83
2022/10/31 00:08:31;;;;;;;12.05;7.10;;;;;;;15.45;74.92;96066.38;5068391;28;20224;-80
2022/10/31 00:10:58;;;;;;;12.85;6.93;;;;;;;15.58;74.65;96063.06;5069905;28;20568;-81
2022/10/31 00:13:24;;;;;;;11.77;6.65;;;;;;;15.62;74.78;96061.66;5069147;28;20228;-79
2022/10/31 00:15:50;;;;;;;11.23;6.85;;;;;;;15.62;74.82;96059.06;5069593;28;20216;-81
2022/10/31 00:18:17;;;;;;;11.38;7.07;;;;;;;15.62;74.59;96053.88;5069504;28;20205;-81
2022/10/31 00:20:43;;;;;;;11.57;6.47;;;;;;;15.65;74.70;96060.47;5063176;28;20212;-79
2022/10/31 00:23:11;;;;;;;9.23;6.22;;;;;;;15.69;74.17;96059.88;5069799;28;20192;-81
2022/10/31 00:25:40;;;;;;;9.00;6.20;;;;;;;15.76;73.98;96060.72;5069721;28;20715;-81
2022/10/31 00:28:08;;;;;;;8.98;5.53;;;;;;;15.74;73.83;96062.72;5069712;28;20224;-82
2022/10/31 00:30:36;;;;;;;8.02;5.53;;;;;;;15.77;73.48;96064.91;5070162;28;20189;-80
2022/10/31 00:33:04;;;;;;;12.93;6.28;;;;;;;15.80;73.01;96058.50;5069335;28;20208;-78
2022/10/31 00:35:31;;;;;;;9.88;5.32;;;;;;;15.82;73.12;96053.91;5069287;28;20197;-80
2022/10/31 00:37:57;;;;;;;15.05;5.63;;;;;;;15.84;72.51;96057.91;5070332;28;20185;-79
2022/10/31 00:40:24;;;;;;;10.45;5.03;;;;;;;15.87;72.71;96054.94;5069242;28;20205;-80
2022/10/31 00:42:52;;;;;;;7.40;5.22;;;;;;;15.87;72.45;96054.94;5069856;28;20193;-80
2022/10/31 00:45:18;;;;;;;7.93;5.32;;;;;;;15.79;72.43;96060.28;5069729;28;20712;-81
2022/10/31 00:47:44;;;;;;;9.43;5.25;;;;;;;15.76;72.47;96057.31;5066741;28;20208;-81
2022/10/31 00:50:11;;;;;;;10.10;5.50;;;;;;;15.69;72.66;96052.09;5073615;28;20695;-81
2022/10/31 00:52:37;;;;;;;10.75;5.57;;;;;;;15.67;73.00;96050.69;5073951;28;20193;-81
2022/10/31 00:55:04;;;;;;;9.80;5.25;;;;;;;15.65;73.01;96055.28;5073169;28;20240;-81
2022/10/31 00:57:31;;;;;;;10.38;5.50;;;;;;;15.64;73.17;96054.47;5073172;28;20201;-81
2022/10/31 00:59:59;;;;;;;8.88;4.90;;;;;;;15.62;73.35;96051.28;5073229;28;20193;-81
2022/10/31 01:02:25;;;;;;;10.00;4.80;;;;;;;15.62;73.00;96048.69;5072433;28;20620;-81
2022/10/31 01:04:51;;;;;;;9.30;5.25;;;;;;;15.65;72.63;96050.09;5072528;28;20212;-80
2022/10/31 01:07:18;;;;;;;9.45;4.90;;;;;;;15.61;72.87;96056.66;5073182;28;20586;-80
2022/10/31 01:09:44;;;;;;;5.88;4.43;;;;;;;15.59;72.58;96053.50;5072014;28;20197;-80
2022/10/31 01:12:11;;;;;;;7.10;4.50;;;;;;;15.61;72.52;96054.06;5072431;28;20201;-80
2022/10/31 01:14:37;;;;;;;9.43;4.45;;;;;;;15.64;72.15;96051.09;5071425;28;20205;-81
2022/10/31 01:17:05;;;;;;;9.35;4.80;;;;;;;15.58;72.15;96050.09;5072727;28;20197;-80
2022/10/31 01:19:32;;;;;;;9.43;4.82;;;;;;;15.57;71.95;96056.28;5072558;28;20209;-81
2022/10/31 01:22:01;;;;;;;12.23;5.28;;;;;;;15.54;72.02;96057.44;5072623;28;20691;-80
2022/10/31 01:24:28;;;;;;;10.70;4.63;;;;;;;15.50;72.13;96048.44;5072902;28;20220;-81
2022/10/31 01:26:54;;;;;;;9.88;4.63;;;;;;;15.57;72.12;96060.66;5072556;28;20193;-79
2022/10/31 01:29:20;;;;;;;9.82;5.00;;;;;;;15.56;72.02;96049.47;5072531;28;20811;-78
2022/10/31 01:31:47;;;;;;;9.27;4.68;;;;;;;15.52;72.06;96053.44;5072622;28;20375;-78
2022/10/31 01:34:17;;;;;;;8.15;4.45;;;;;;;15.53;71.88;96052.44;5070064;28;20236;-80
2022/10/31 01:36:47;;;;;;;8.50;4.65;;;;;;;15.45;72.01;96057.78;5072106;28;20193;-80
2022/10/31 01:39:14;;;;;;;8.00;4.50;;;;;;;15.44;72.22;96054.38;5072724;28;20572;-78
2022/10/31 01:41:44;;;;;;;7.47;4.60;;;;;;;15.35;72.64;96050.38;5071683;28;20204;-80
2022/10/31 01:44:47;;;;;;;8.55;4.28;;;;;;;15.38;72.21;96046.59;5072188;28;20220;-78
2022/10/31 01:47:18;;;;;;;8.60;4.20;;;;;;;15.37;72.38;96050.19;5069205;28;20242;-80
2022/10/31 01:49:49;;;;;;;9.88;4.05;;;;;;;15.30;72.40;96052.75;5071827;28;20205;-80
2022/10/31 01:52:22;;;;;;;13.18;4.78;;;;;;;15.26;72.90;96042.94;5072217;28;20199;-80
2022/10/31 01:54:51;;;;;;;7.68;4.15;;;;;;;15.27;72.60;96047.16;5072296;28;20745;-80
2022/10/31 01:57:20;;;;;;;9.73;4.45;;;;;;;15.24;72.97;96042.34;5072321;28;20197;-78
2022/10/31 01:59:50;;;;;;;8.18;4.80;;;;;;;15.29;72.21;96053.75;5072623;28;20228;-80
2022/10/31 02:02:18;;;;;;;6.57;4.25;;;;;;;15.25;72.26;96051.72;5072705;28;20554;-80
2022/10/31 02:04:48;;;;;;;8.98;4.50;;;;;;;15.21;72.79;96052.09;5072493;28;20224;-81
2022/10/31 02:07:19;;;;;;;8.05;4.55;;;;;;;15.19;72.60;96050.72;5072699;28;20227;-78
2022/10/31 02:09:47;;;;;;;8.00;4.00;;;;;;;15.23;72.52;96045.94;5071519;28;20208;-80
2022/10/31 02:12:14;;;;;;;7.35;4.32;;;;;;;15.25;72.17;96055.13;5072310;28;20760;-80
2022/10/31 02:14:41;;;;;;;6.18;4.05;;;;;;;15.23;72.38;96046.72;5071229;28;20220;-78
2022/10/31 02:17:08;;;;;;;6.45;4.07;;;;;;;15.25;72.54;96054.31;5072447;28;20205;-80
2022/10/31 02:19:48;;;;;;;8.43;4.25;;;;;;;15.26;72.69;96048.16;5071325;28;20197;-80
2022/10/31 02:22:25;;;;;;;6.55;4.18;;;;;;;15.26;72.76;96045.53;5072756;28;20224;-79
2022/10/31 02:25:22;;;;;;;9.27;3.80;;;;;;;15.29;72.46;96047.75;5065724;28;20223;-80
2022/10/31 02:28:19;;;;;;;7.82;4.35;;;;;;;15.28;72.46;96039.19;5071604;28;20215;-80
2022/10/31 02:31:01;;;;;;;8.40;4.20;;;;;;;15.24;72.68;96052.72;5070865;28;20216;-82
2022/10/31 02:33:35;;;;;;;6.68;3.85;;;;;;;15.23;72.85;96051.91;5072441;28;20225;-80
2022/10/31 02:36:12;;;;;;;8.18;4.40;;;;;;;15.15;72.54;96049.50;5071748;28;20203;-78
2022/10/31 02:38:50;;;;;;;6.78;4.25;;;;;;;15.01;72.69;96040.84;5071929;28;20197;-79
2022/10/31 02:41:25;;;;;;;10.05;4.40;;;;;;;15.01;72.68;96045.25;5071558;28;20208;-78
2022/10/31 02:44:00;;;;;;;8.40;4.68;;;;;;;14.97;72.84;96049.22;5065083;28;20246;-79
2022/10/31 02:46:35;;;;;;;7.75;4.10;;;;;;;14.93;73.03;96050.59;5070629;28;20200;-80
2022/10/31 02:49:06;;;;;;;8.40;4.03;;;;;;;14.79;73.37;96045.34;5070922;28;20217;-78
2022/10/31 02:51:33;;;;;;;8.32;4.43;;;;;;;14.77;73.96;96052.50;5071040;28;20541;-79
2022/10/31 02:53:59;;;;;;;7.18;4.00;;;;;;;14.81;74.07;96053.75;5071310;28;20220;-79
2022/10/31 02:56:26;;;;;;;6.25;4.32;;;;;;;14.85;73.47;96052.34;5070999;28;20208;-81
2022/10/31 02:58:56;;;;;;;9.18;4.18;;;;;;;14.89;74.01;96052.75;5064459;28;20200;-79
2022/10/31 03:01:46;;;;;;;7.20;4.90;;;;;;;14.91;73.75;96047.41;5071230;28;20203;-81
2022/10/31 03:04:42;;;;;;;9.80;4.50;;;;;;;14.89;72.72;96057.94;5067301;28;20216;-80
2022/10/31 03:07:18;;;;;;;7.88;4.00;;;;;;;14.76;73.29;96050.09;5062917;28;20201;-79
2022/10/31 03:09:56;;;;;;;10.07;4.00;;;;;;;14.74;73.58;96042.53;5069065;28;20208;-80
2022/10/31 03:12:28;;;;;;;6.82;4.00;;;;;;;14.59;74.13;96043.63;5070781;28;20212;-79
2022/10/31 03:15:05;;;;;;;8.95;4.13;;;;;;;14.63;73.82;96042.25;5064677;28;20219;-79
2022/10/31 03:17:38;;;;;;;7.30;4.45;;;;;;;14.68;73.90;96048.47;5071012;28;20203;-79
2022/10/31 03:20:10;;;;;;;8.90;4.57;;;;;;;14.70;74.23;96045.69;5070641;28;20714;-80
2022/10/31 03:22:41;;;;;;;6.88;4.30;;;;;;;14.73;73.84;96050.47;5070002;28;20208;-81
2022/10/31 03:25:09;;;;;;;8.30;4.38;;;;;;;14.74;74.02;96049.50;5070707;28;20220;-80
2022/10/31 03:27:38;;;;;;;7.18;4.53;;;;;;;14.73;73.20;96047.91;5069712;28;20224;-82
2022/10/31 03:30:07;;;;;;;10.05;4.40;;;;;;;14.70;73.39;96049.06;5070637;28;20207;-80
2022/10/31 03:32:41;;;;;;;7.85;4.22;;;;;;;14.60;73.77;96045.22;5070242;28;20193;-78
2022/10/31 03:35:10;;;;;;;8.20;4.25;;;;;;;14.50;73.74;96048.16;5070544;28;20216;-79
2022/10/31 03:37:40;;;;;;;8.43;4.28;;;;;;;14.44;74.30;96047.09;5070367;28;20197;-79
2022/10/31 03:40:09;;;;;;;5.70;4.20;;;;;;;14.46;73.88;96052.91;5070319;28;20193;-79
2022/10/31 03:42:41;;;;;;;7.18;3.80;;;;;;;14.47;73.90;96046.72;5069856;28;20208;-79
2022/10/31 03:45:13;;;;;;;8.07;3.92;;;;;;;14.43;74.16;96048.09;5063011;28;20224;-80
2022/10/31 03:47:43;;;;;;;7.25;4.05;;;;;;;14.45;73.81;96047.91;5071583;28;20220;-80
2022/10/31 03:50:13;;;;;;;10.32;4.68;;;;;;;14.39;73.97;96046.06;5071211;28;20196;-79
2022/10/31 03:52:46;;;;;;;8.35;4.50;;;;;;;14.43;73.75;96049.91;5069541;28;20196;-79
2022/10/31 03:55:18;;;;;;;8.65;4.70;;;;;;;14.38;74.73;96049.63;5069479;28;20707;-80
2022/10/31 03:57:52;;;;;;;11.93;4.07;;;;;;;14.44;74.31;96054.88;5069967;28;20204;-80
2022/10/31 04:00:20;;;;;;;8.27;4.00;;;;;;;14.49;74.10;96056.91;5068995;28;20325;-78
2022/10/31 04:02:54;;;;;;;6.00;4.30;;;;;;;14.41;74.39;96049.28;5069577;28;20840;-80
2022/10/31 04:05:22;;;;;;;7.70;4.38;;;;;;;14.40;74.43;96055.44;5069133;28;20611;-78
2022/10/31 04:07:54;;;;;;;7.28;4.05;;;;;;;14.36;74.70;96049.03;5067987;28;20243;-79
2022/10/31 04:10:23;;;;;;;10.05;4.38;;;;;;;14.36;74.66;96057.59;5069107;28;20196;-79
2022/10/31 04:12:55;;;;;;;10.15;4.60;;;;;;;14.34;75.13;96054.38;5068464;28;20204;-80
2022/10/31 04:15:24;;;;;;;8.55;4.43;;;;;;;14.37;75.42;96050.63;5068895;28;20213;-79
2022/10/31 04:17:56;;;;;;;9.68;4.63;;;;;;;14.32;76.55;96052.97;5068355;28;20189;-80
2022/10/31 04:20:31;;;;;;;6.47;4.25;;;;;;;14.42;75.69;96049.09;5071551;28;20199;-79
2022/10/31 04:22:57;;;;;;;6.07;4.10;;;;;;;14.39;75.16;96053.81;5073736;28;20193;-79
2022/10/31 04:25:24;;;;;;;6.93;4.07;;;;;;;14.43;74.54;96053.28;5072703;28;20221;-80
2022/10/31 04:27:50;;;;;;;6.35;3.80;;;;;;;14.38;74.88;96047.84;5073030;28;20193;-79
2022/10/31 04:30:17;;;;;;;7.93;4.40;;;;;;;14.40;75.24;96055.44;5073241;28;20213;-80
2022/10/31 04:32:43;;;;;;;9.55;4.78;;;;;;;14.13;76.26;96057.81;5073090;28;20203;-79
2022/10/31 04:35:11;;;;;;;8.40;4.38;;;;;;;14.16;75.70;96047.06;5073862;28;20222;-79
2022/10/31 04:37:37;;;;;;;8.38;4.00;;;;;;;14.22;76.06;96066.25;5072703;28;20197;-80
2022/10/31 04:40:06;;;;;;;10.35;4.50;;;;;;;14.27;75.65;96058.69;5072723;28;20211;-79
2022/10/31 04:42:33;;;;;;;8.07;4.38;;;;;;;14.24;75.29;96050.53;5069678;28;20576;-80
2022/10/31 04:44:59;;;;;;;7.03;4.43;;;;;;;14.23;75.84;96059.28;5066854;28;20689;-81
2022/10/31 04:47:26;;;;;;;7.65;4.22;;;;;;;14.32;75.63;96064.13;5072115;28;20219;-79
2022/10/31 04:49:52;;;;;;;8.50;4.70;;;;;;;14.22;75.77;96055.09;5073082;28;20216;-78
2022/10/31 04:52:20;;;;;;;5.82;4.22;;;;;;;14.21;75.74;96053.50;5073915;28;20319;-79
2022/10/31 04:54:46;;;;;;;7.35;4.22;;;;;;;14.19;75.68;96053.69;5073169;28;20484;-79
2022/10/31 04:57:13;;;;;;;7.60;3.92;;;;;;;14.18;75.55;96057.25;5073647;28;20201;-79
2022/10/31 04:59:39;;;;;;;7.35;4.10;;;;;;;14.25;75.54;96060.69;5072928;28;20537;-79
2022/10/31 05:02:06;;;;;;;6.55;4.40;;;;;;;14.24;75.43;96061.66;5072365;28;20208;-79
2022/10/31 05:04:32;;;;;;;9.40;4.30;;;;;;;14.21;74.75;96059.47;5073494;28;20220;-80
2022/10/31 05:06:58;;;;;;;6.72;4.25;;;;;;;14.11;75.21;96059.78;5073220;28;20208;-78
2022/10/31 05:09:26;;;;;;;9.25;4.10;;;;;;;14.07;75.18;96058.53;5072908;28;20220;-79
2022/10/31 05:11:53;;;;;;;6.47;4.38;;;;;;;14.04;75.22;96055.53;5072576;28;20193;-80
2022/10/31 05:14:19;;;;;;;6.63;4.30;;;;;;;13.96;75.36;96055.66;5073203;28;20224;-81
2022/10/31 05:16:46;;;;;;;7.75;4.50;;;;;;;13.77;76.24;96059.66;5072642;28;20201;-80
2022/10/31 05:19:12;;;;;;;5.43;4.47;;;;;;;13.57;77.01;96051.69;5071810;28;20193;-81
2022/10/31 05:21:41;;;;;;;7.63;4.50;;;;;;;13.67;76.24;96046.22;5073637;28;20197;-82
2022/10/31 05:24:08;;;;;;;7.10;4.10;;;;;;;13.72;76.16;96046.47;5065779;28;20225;-79
2022/10/31 05:26:36;;;;;;;8.77;4.57;;;;;;;13.77;76.07;96051.91;5072564;28;20227;-80
2022/10/31 05:29:02;;;;;;;7.40;4.10;;;;;;;13.81;75.96;96046.19;5062074;28;20221;-80
2022/10/31 05:31:29;;;;;;;11.52;4.90;;;;;;;13.82;75.87;96044.41;5066227;28;20212;-79
2022/10/31 05:33:55;;;;;;;6.63;4.28;;;;;;;13.86;75.48;96045.59;5073176;28;20233;-80
2022/10/31 05:36:22;;;;;;;8.73;4.63;;;;;;;13.90;75.82;96046.84;5067223;28;20819;-78
2022/10/31 05:38:48;;;;;;;7.20;4.15;;;;;;;13.94;75.13;96036.91;5071021;28;20553;-79
2022/10/31 05:41:14;;;;;;;6.38;4.43;;;;;;;13.97;75.36;96033.97;5071388;28;20203;-80
2022/10/31 05:43:42;;;;;;;7.13;4.20;;;;;;;14.01;75.48;96042.97;5055013;28;20222;-80
2022/10/31 05:46:09;;;;;;;10.13;4.60;;;;;;;14.06;74.87;96027.66;5073148;28;20723;-80
2022/10/31 05:48:35;;;;;;;8.48;4.20;;;;;;;14.04;75.18;96030.47;5070672;28;20684;-80
2022/10/31 05:51:02;;;;;;;8.68;4.47;;;;;;;13.91;75.04;96035.50;5072817;28;20197;-79
2022/10/31 05:53:28;;;;;;;8.55;4.97;;;;;;;13.84;75.16;96034.66;5072299;28;20220;-79
2022/10/31 05:55:54;;;;;;;8.02;4.45;;;;;;;13.85;75.56;96027.69;5072057;28;20197;-79
2022/10/31 05:58:24;;;;;;;7.32;4.50;;;;;;;13.83;75.78;96025.28;5072611;28;20200;-80
2022/10/31 06:00:52;;;;;;;7.60;4.50;;;;;;;13.87;75.12;96026.50;5072639;28;20204;-78
2022/10/31 06:03:18;;;;;;;12.00;4.30;;;;;;;13.65;75.78;96035.28;5052917;28;20217;-80
2022/10/31 06:05:45;;;;;;;10.85;5.18;;;;;;;13.69;75.97;96041.66;5053355;28;20198;-78
2022/10/31 06:08:11;;;;;;;7.18;4.63;;;;;;;13.69;75.86;96039.88;5052847;28;20197;-80
2022/10/31 06:10:38;;;;;;;8.60;4.47;;;;;;;13.69;75.70;96045.03;5068350;28;20197;-78
2022/10/31 06:13:06;;;;;;;9.02;4.90;;;;;;;13.59;76.23;96043.75;5071038;28;20203;-80
2022/10/31 06:15:32;;;;;;;16.13;6.32;;;;;;;13.39;84.93;96046.13;5070591;28;20196;-80
2022/10/31 06:18:03;;;;;;;11.73;5.93;;;;;;;13.29;84.32;96041.25;5070774;28;20205;-79
2022/10/31 06:20:30;;;;;;;10.37;4.20;;;;;;;13.34;80.19;96053.63;5070584;28;20547;-79
2022/10/31 06:22:56;;;;;;;8.50;4.38;;;;;;;13.42;80.05;96049.16;5070474;28;20220;-79
2022/10/31 06:25:23;;;;;;;6.30;4.65;;;;;;;13.55;78.19;96061.44;5071143;28;20217;-80
2022/10/31 06:27:49;;;;;;;11.68;6.78;;;;;;;13.65;77.20;96049.00;5070443;28;20204;-79
2022/10/31 06:30:16;;;;;;;13.90;6.57;;;;;;;13.73;77.27;96054.06;5064967;28;20217;-79
2022/10/31 06:32:42;;;;;;;7.40;5.17;;;;;;;13.90;76.38;96053.81;5069164;28;20204;-80
2022/10/31 06:35:10;;;;;;;6.95;4.50;;;;;;;14.00;75.35;96049.13;5070916;28;20296;-79
2022/10/31 06:37:37;;;;;;;6.68;4.55;;;;;;;14.13;75.54;96044.06;5067153;28;20343;-79
2022/10/31 06:40:04;;;;;;;9.05;4.65;;;;;;;14.29;74.80;96050.75;5065773;28;20196;-80
2022/10/31 06:42:31;;;;;;;6.63;4.75;;;;;;;14.49;74.32;96046.53;5067659;28;20207;-80
2022/10/31 06:44:57;;;;;;;7.65;4.53;;;;;;;14.66;73.59;96034.88;5070844;28;20223;-79
2022/10/31 06:47:24;;;;;;;11.98;4.38;;;;;;;14.85;73.21;96044.56;5070369;28;20203;-80
2022/10/31 06:49:50;;;;;;;9.32;4.80;;;;;;;15.10;72.54;96038.91;5071102;28;20473;-80
2022/10/31 06:52:18;;;;;;;7.75;4.72;;;;;;;15.40;71.68;96039.41;5071189;28;20213;-79
2022/10/31 06:54:44;;;;;;;8.15;5.20;;;;;;;15.68;69.97;96045.31;5072298;28;20752;-81
2022/10/31 06:57:11;;;;;;;9.45;4.60;;;;;;;16.04;68.92;96041.56;5071111;28;20565;-80
2022/10/31 06:59:37;;;;;;;11.20;5.20;;;;;;;16.33;67.63;96043.78;5071538;28;20795;-82
2022/10/31 07:02:04;;;;;;;12.10;5.30;;;;;;;16.68;66.11;96046.16;5071191;28;20201;-80
2022/10/31 07:04:30;;;;;;;7.45;4.70;;;;;;;16.96;64.78;96049.28;5071379;28;20221;-80
2022/10/31 07:06:59;;;;;;;10.88;5.30;;;;;;;17.36;65.07;96047.34;5070373;28;20205;-80
2022/10/31 07:09:27;;;;;;;9.02;5.43;;;;;;;17.64;62.97;96041.81;5070555;28;20215;-79
2022/10/31 07:11:54;;;;;;;10.60;5.13;;;;;;;17.77;62.69;96053.97;5070712;28;20189;-78
2022/10/31 07:14:21;;;;;;;13.13;5.30;;;;;;;17.99;62.28;96049.22;5070470;28;20237;-79
2022/10/31 07:16:51;;;;;;;10.25;5.78;;;;;;;18.11;61.41;96057.94;5070637;28;20676;-80
2022/10/31 07:19:17;;;;;;;12.70;5.55;;;;;;;18.09;61.78;96044.34;5070221;28;20197;-82
2022/10/31 07:21:44;;;;;;;11.40;5.35;;;;;;;18.04;60.76;96044.19;5070086;28;20204;-79
2022/10/31 07:24:10;;;;;;;11.43;5.47;;;;;;;18.09;61.55;96057.38;5070311;28;20220;-80
2022/10/31 07:26:38;;;;;;;13.07;5.53;;;;;;;18.11;60.53;96057.94;5071027;28;20201;-80
2022/10/31 07:29:04;;;;;;;8.15;4.65;;;;;;;18.23;60.49;96056.28;5069751;28;20718;-81
2022/10/31 07:31:31;;;;;;;12.25;5.22;;;;;;;18.41;60.12;96047.69;5070218;28;20192;-80
2022/10/31 07:33:57;;;;;;;10.55;5.22;;;;;;;18.64;59.60;96047.94;5069706;28;20220;-79
2022/10/31 07:36:24;;;;;;;12.55;4.85;;;;;;;18.87;59.48;96049.88;5070854;28;20200;-79
2022/10/31 07:38:50;;;;;;;11.98;5.32;;;;;;;19.01;58.62;96038.31;5070233;28;20197;-80
2022/10/31 07:41:17;;;;;;;8.63;5.20;;;;;;;19.17;58.16;96053.38;5070834;28;20204;-79
2022/10/31 07:43:44;;;;;;;11.77;5.22;;;;;;;19.35;57.86;96046.53;5070906;28;20227;-80
2022/10/31 07:46:11;;;;;;;9.13;5.20;;;;;;;19.49;57.37;96047.97;5070721;28;20211;-80
2022/10/31 07:48:38;;;;;;;10.25;5.15;;;;;;;19.60;56.99;96042.03;5058596;28;20205;-79
2022/10/31 07:51:06;;;;;;;8.00;4.50;;;;;;;19.63;56.07;96037.16;5070902;28;20196;-78
2022/10/31 07:53:36;;;;;;;7.60;4.80;;;;;;;19.79;55.67;96040.19;5071211;28;20221;-78
2022/10/31 07:56:02;;;;;;;11.25;5.32;;;;;;;19.99;55.84;96040.69;5071466;28;20196;-81
2022/10/31 07:58:28;;;;;;;10.50;5.10;;;;;;;20.13;55.97;96033.44;5070780;28;20209;-80
2022/10/31 08:00:58;;;;;;;8.50;5.00;;;;;;;20.24;54.99;96027.41;5071138;28;20197;-79
2022/10/31 08:03:27;;;;;;;9.38;5.28;;;;;;;20.44;55.08;96035.75;5070421;28;20207;-80
2022/10/31 08:05:54;;;;;;;10.48;5.45;;;;;;;20.60;54.50;96032.44;5070558;28;20684;-80
2022/10/31 08:08:20;;;;;;;9.55;4.90;;;;;;;20.77;54.36;96024.72;5070544;28;20205;-80
2022/10/31 08:10:47;;;;;;;10.63;5.07;;;;;;;20.74;54.06;96019.94;5071227;28;20742;-81
2022/10/31 08:13:14;;;;;;;9.95;5.28;;;;;;;20.67;54.21;96021.88;5072243;28;20204;-78
2022/10/31 08:15:42;;;;;;;8.27;4.80;;;;;;;20.57;54.66;96019.84;5072952;28;20212;-81
2022/10/31 08:18:13;;;;;;;8.00;5.30;;;;;;;20.50;54.16;96020.97;5072032;28;20207;-82
2022/10/31 08:20:39;;;;;;;13.07;5.30;;;;;;;20.48;54.43;96015.19;5072179;28;20849;-82
2022/10/31 08:23:06;;;;;;;9.60;5.22;;;;;;;20.44;54.78;96017.44;5072308;28;20680;-81
2022/10/31 08:25:34;;;;;;;10.48;5.40;;;;;;;20.48;54.45;96017.78;5071681;28;20221;-82
2022/10/31 08:28:00;;;;;;;9.77;5.65;;;;;;;20.50;55.04;96008.69;5071618;28;20200;-81
2022/10/31 08:30:29;;;;;;;10.50;5.80;;;;;;;20.46;55.15;96007.56;5071413;28;20232;-79
2022/10/31 08:33:00;;;;;;;11.93;6.03;;;;;;;20.49;55.44;96011.53;5070556;28;20210;-80
2022/10/31 08:35:29;;;;;;;10.15;6.07;;;;;;;20.53;55.50;96010.88;5071824;28;20224;-81
2022/10/31 08:37:55;;;;;;;11.63;6.35;;;;;;;20.48;55.50;95996.88;5070940;28;20204;-80
2022/10/31 08:40:22;;;;;;;12.55;7.20;;;;;;;20.47;56.00;96001.31;5069748;28;20201;-80
2022/10/31 08:42:56;;;;;;;14.15;7.80;;;;;;;20.37;56.74;96002.91;5070685;28;20209;-81
2022/10/31 08:45:23;;;;;;;10.48;7.90;;;;;;;20.37;57.61;95995.84;5065250;28;20214;-81
2022/10/31 08:47:49;;;;;;;13.20;7.22;;;;;;;20.08;58.59;95994.09;5064251;28;20615;-80
2022/10/31 08:50:16;;;;;;;10.52;7.43;;;;;;;20.13;58.20;95989.78;5071074;28;20224;-80
2022/10/31 08:52:44;;;;;;;43.05;37.45;;;;;;;20.27;57.92;95991.16;5070429;28;20624;-80
2022/10/31 08:55:10;;;;;;;12.30;8.93;;;;;;;20.33;57.61;95984.22;5070196;28;20223;-81
2022/10/31 08:57:36;;;;;;;11.20;7.45;;;;;;;20.33;58.00;95990.25;5070863;28;20197;-80
2022/10/31 09:00:05;;;;;;;10.60;7.97;;;;;;;20.16;58.68;95981.50;5070969;28;20197;-80
2022/10/31 09:02:31;;;;;;;13.88;8.23;;;;;;;20.10;59.87;95986.81;5070990;28;20495;-80
2022/10/31 09:04:58;;;;;;;12.48;7.80;;;;;;;20.00;58.75;95975.13;5070636;28;20240;-79
2022/10/31 09:07:24;;;;;;;12.43;7.70;;;;;;;19.91;59.18;95975.66;5073014;28;20189;-79
2022/10/31 09:09:52;;;;;;;12.73;7.63;;;;;;;19.88;59.15;95970.88;5073421;28;20231;-81
2022/10/31 09:12:18;;;;;;;11.35;7.15;;;;;;;20.00;58.92;95967.28;5074184;28;20212;-81
2022/10/31 09:14:45;;;;;;;9.93;7.13;;;;;;;19.81;57.97;95971.00;5074029;28;20413;-81
2022/10/31 09:17:11;;;;;;;10.82;7.20;;;;;;;19.85;58.31;95979.94;5074254;28;20734;-81
2022/10/31 09:19:38;;;;;;;12.23;7.97;;;;;;;19.87;58.61;95964.03;5074179;28;20578;-81
2022/10/31 09:22:05;;;;;;;12.35;7.20;;;;;;;20.22;58.35;95962.25;5073897;28;20204;-79
2022/10/31 09:24:31;;;;;;;16.00;7.90;;;;;;;20.29;57.52;95965.56;5073287;28;20247;-80
2022/10/31 09:27:00;;;;;;;12.50;7.05;;;;;;;20.48;57.79;95958.41;5069266;28;20201;-79
2022/10/31 09:29:26;;;;;;;11.40;7.00;;;;;;;20.54;57.06;95954.91;5073219;28;20228;-81
2022/10/31 09:31:53;;;;;;;11.50;6.63;;;;;;;20.45;56.99;95951.03;5071936;28;20208;-80
2022/10/31 09:34:19;;;;;;;10.38;6.93;;;;;;;20.49;57.03;95959.22;5052141;28;20284;-81
2022/10/31 09:36:46;;;;;;;16.75;6.40;;;;;;;20.56;56.42;95952.84;5053273;28;20712;-79
2022/10/31 09:39:12;;;;;;;12.05;6.57;;;;;;;20.73;56.31;95947.69;5052372;28;20691;-80
2022/10/31 09:41:56;;;;;;;16.50;6.20;;;;;;;20.84;55.85;95948.69;5065161;28;20200;-80
2022/10/31 09:44:31;;;;;;;9.40;5.60;;;;;;;20.80;55.33;95944.94;5052370;28;20307;-80
2022/10/31 09:47:01;;;;;;;9.63;5.55;;;;;;;20.55;55.18;95940.00;5058727;28;20292;-81
2022/10/31 09:49:39;;;;;;;14.88;5.50;;;;;;;20.43;55.14;95939.19;5072094;28;20205;-81
2022/10/31 09:52:13;;;;;;;10.93;7.03;;;;;;;20.31;55.78;95941.81;5072508;28;20209;-79
2022/10/31 09:54:45;;;;;;;13.48;5.28;;;;;;;20.32;55.88;95935.53;5072352;28;20247;-80
2022/10/31 09:57:15;;;;;;;8.90;5.20;;;;;;;20.29;55.87;95933.38;5072356;28;20204;-80
2022/10/31 09:59:45;;;;;;;10.40;5.43;;;;;;;20.30;56.79;95927.13;5072165;28;20197;-80
2022/10/31 10:02:17;;;;;;;9.77;5.20;;;;;;;20.27;56.54;95927.59;5072980;28;20204;-81
2022/10/31 10:04:47;;;;;;;12.18;5.45;;;;;;;20.46;56.44;95931.69;5073926;28;20254;-80
2022/10/31 10:07:22;;;;;;;10.15;4.45;;;;;;;20.50;55.72;95926.81;5072935;28;20204;-81
2022/10/31 10:09:50;;;;;;;11.10;4.38;;;;;;;20.53;54.18;95926.34;5073584;28;20266;-80
2022/10/31 10:12:24;;;;;;;9.75;4.40;;;;;;;20.59;53.56;95930.66;5072136;28;20567;-81
2022/10/31 10:15:22;;;;;;;6.53;3.97;;;;;;;20.65;53.28;95922.66;5073810;28;20224;-82
2022/10/31 10:18:00;;;;;;;9.95;4.60;;;;;;;20.69;52.93;95928.25;5073394;28;20215;-81
2022/10/31 10:20:38;;;;;;;10.45;4.70;;;;;;;20.68;52.64;95929.25;5072969;28;20200;-81
2022/10/31 10:23:23;;;;;;;7.97;4.25;;;;;;;20.60;51.76;95927.78;5073550;28;20575;-81
2022/10/31 10:25:57;;;;;;;8.05;3.97;;;;;;;20.64;52.49;95925.50;5072322;28;20200;-80
2022/10/31 10:28:29;;;;;;;9.65;4.20;;;;;;;20.63;52.31;95929.16;5073471;28;20205;-80
2022/10/31 10:31:02;;;;;;;7.88;4.10;;;;;;;20.71;52.58;95920.97;5072799;28;20224;-80
2022/10/31 10:33:33;;;;;;;10.55;4.45;;;;;;;20.65;52.84;95914.81;5059219;28;20723;-79
2022/10/31 10:36:02;;;;;;;11.40;4.30;;;;;;;20.80;53.17;95916.94;5060482;28;20209;-80
2022/10/31 10:38:33;;;;;;;10.57;3.50;;;;;;;20.75;51.54;95909.00;5063157;28;20204;-80
2022/10/31 10:41:02;;;;;;;7.95;3.67;;;;;;;20.71;52.07;95913.09;5071655;28;20224;-80
2022/10/31 10:43:32;;;;;;;5.80;3.17;;;;;;;20.69;52.02;95908.09;5071027;28;20208;-80
2022/10/31 10:49:16;;;;;;;7.85;3.33;;;;;;;20.52;50.50;95906.44;5051634;28;20278;-79
2022/10/31 10:51:47;;;;;;;9.30;3.22;;;;;;;20.49;51.46;95896.44;5050959;28;20596;-80
2022/10/31 10:54:25;;;;;;;8.77;3.40;;;;;;;20.57;51.43;95899.50;5067512;28;20225;-81
2022/10/31 10:57:01;;;;;;;8.18;3.53;;;;;;;20.57;51.92;95898.69;5071735;28;20290;-80
2022/10/31 10:59:29;;;;;;;5.47;2.90;;;;;;;20.61;51.52;95889.34;5071458;28;20208;-81
2022/10/31 11:01:57;;;;;;;6.22;2.78;;;;;;;20.52;52.05;95891.53;5070692;28;20671;-81
2022/10/31 11:04:30;;;;;;;6.57;3.03;;;;;;;20.51;51.20;95884.72;5071386;28;20223;-80
2022/10/31 11:07:01;;;;;;;4.60;2.83;;;;;;;20.52;52.20;95886.31;5072537;28;20209;-81
2022/10/31 11:09:28;;;;;;;5.60;2.95;;;;;;;20.40;52.07;95880.28;5071729;28;20211;-81
2022/10/31 11:11:55;;;;;;;6.93;3.28;;;;;;;20.40;52.61;95872.44;5071894;28;20227;-81
2022/10/31 11:14:23;;;;;;;5.90;2.83;;;;;;;20.38;52.63;95871.91;5060022;28;20221;-80
2022/10/31 11:16:52;;;;;;;6.97;3.00;;;;;;;20.39;52.54;95872.69;5051393;28;20673;-79
2022/10/31 11:19:22;;;;;;;3.83;3.05;;;;;;;20.35;52.18;95870.50;5051890;28;20205;-81
2022/10/31 11:21:49;;;;;;;7.13;2.67;;;;;;;20.37;51.71;95861.66;5051658;28;20208;-80
2022/10/31 11:24:18;;;;;;;4.38;2.90;;;;;;;20.43;51.15;95863.34;5051096;28;20224;-81
2022/10/31 11:26:47;;;;;;;6.70;3.03;;;;;;;20.47;49.95;95854.81;5051510;28;20198;-82
2022/10/31 11:29:21;;;;;;;7.97;3.10;;;;;;;20.51;50.29;95853.31;5051132;28;20205;-81
2022/10/31 11:31:51;;;;;;;10.10;3.25;;;;;;;20.66;50.27;95851.00;5055820;28;20217;-81
2022/10/31 11:34:28;;;;;;;8.30;2.85;;;;;;;20.71;48.90;95854.75;5057344;28;20225;-81
2022/10/31 11:36:58;;;;;;;8.05;3.33;;;;;;;20.78;48.88;95842.31;5073741;28;20204;-81
2022/10/31 11:39:25;;;;;;;7.13;2.88;;;;;;;20.79;49.03;95847.28;5072006;28;20200;-80
2022/10/31 11:41:55;;;;;;;7.22;3.08;;;;;;;20.83;48.53;95843.19;5071609;28;20208;-81
2022/10/31 11:44:25;;;;;;;6.22;2.85;;;;;;;20.74;47.47;95838.56;5056931;28;20217;-82